sensor_id;sensor_type;location;lat;lon;timestamp;P1;durP1;ratioP1;P2;durP2;ratioP2
7683;SDS011;3884;48.616;12.872;2023-04-24T00:00:49;4.93;;;2.87;;
7683;SDS011;3884;48.616;12.872;2023-04-24T00:03:22;3.33;;;2.67;;
7683;SDS011;3884;48.616;12.872;2023-04-24T00:05:53;5.00;;;2.60;;
7683;SDS011;3884;48.616;12.872;2023-04-24T00:08:22;2.87;;;2.63;;
7683;SDS011;3884;48.616;12.872;2023-04-24T00:10:49;2.90;;;2.43;;
7683;SDS011;3884;48.616;12.872;2023-04-24T00:13:17;2.83;;;2.40;;
7683;SDS011;3884;48.616;12.872;2023-04-24T00:15:45;2.70;;;2.43;;
7683;SDS011;3884;48.616;12.872;2023-04-24T00:18:12;3.33;;;2.33;;
7683;SDS011;3884;48.616;12.872;2023-04-24T00:20:40;3.70;;;2.13;;
7683;SDS011;3884;48.616;12.872;2023-04-24T00:23:09;3.70;;;2.30;;
7683;SDS011;3884;48.616;12.872;2023-04-24T00:25:37;2.90;;;2.30;;
7683;SDS011;3884;48.616;12.872;2023-04-24T00:28:05;2.60;;;2.40;;
7683;SDS011;3884;48.616;12.872;2023-04-24T00:30:32;2.87;;;2.63;;
7683;SDS011;3884;48.616;12.872;2023-04-24T00:33:02;4.63;;;2.37;;
7683;SDS011;3884;48.616;12.872;2023-04-24T00:35:30;2.67;;;2.37;;
7683;SDS011;3884;48.616;12.872;2023-04-24T00:37:57;2.80;;;2.50;;
7683;SDS011;3884;48.616;12.872;2023-04-24T00:40:25;4.87;;;2.90;;
7683;SDS011;3884;48.616;12.872;2023-04-24T00:42:54;4.23;;;2.83;;
7683;SDS011;3884;48.616;12.872;2023-04-24T00:45:22;6.00;;;3.30;;
7683;SDS011;3884;48.616;12.872;2023-04-24T00:47:52;3.73;;;3.13;;
7683;SDS011;3884;48.616;12.872;2023-04-24T00:50:20;3.23;;;2.83;;
7683;SDS011;3884;48.616;12.872;2023-04-24T00:52:47;3.80;;;2.70;;
7683;SDS011;3884;48.616;12.872;2023-04-24T00:55:15;4.87;;;3.03;;
7683;SDS011;3884;48.616;12.872;2023-04-24T00:57:42;9.57;;;3.10;;
7683;SDS011;3884;48.616;12.872;2023-04-24T01:00:12;3.73;;;3.00;;
7683;SDS011;3884;48.616;12.872;2023-04-24T01:02:42;3.80;;;2.90;;
7683;SDS011;3884;48.616;12.872;2023-04-24T01:05:10;4.73;;;2.90;;
7683;SDS011;3884;48.616;12.872;2023-04-24T01:07:38;3.37;;;3.07;;
7683;SDS011;3884;48.616;12.872;2023-04-24T01:10:09;4.57;;;3.40;;
7683;SDS011;3884;48.616;12.872;2023-04-24T01:12:39;6.30;;;3.60;;
7683;SDS011;3884;48.616;12.872;2023-04-24T01:15:07;3.60;;;3.30;;
7683;SDS011;3884;48.616;12.872;2023-04-24T01:17:39;3.20;;;2.90;;
7683;SDS011;3884;48.616;12.872;2023-04-24T01:20:06;3.63;;;3.27;;
7683;SDS011;3884;48.616;12.872;2023-04-24T01:22:40;4.87;;;3.30;;
7683;SDS011;3884;48.616;12.872;2023-04-24T01:25:11;4.30;;;3.30;;
7683;SDS011;3884;48.616;12.872;2023-04-24T01:27:40;4.67;;;3.20;;
7683;SDS011;3884;48.616;12.872;2023-04-24T01:30:10;4.73;;;3.50;;
7683;SDS011;3884;48.616;12.872;2023-04-24T01:32:38;5.27;;;4.07;;
7683;SDS011;3884;48.616;12.872;2023-04-24T01:35:07;5.03;;;4.00;;
7683;SDS011;3884;48.616;12.872;2023-04-24T01:37:34;5.23;;;3.63;;
7683;SDS011;3884;48.616;12.872;2023-04-24T01:40:04;4.33;;;3.70;;
7683;SDS011;3884;48.616;12.872;2023-04-24T01:42:31;4.60;;;4.20;;
7683;SDS011;3884;48.616;12.872;2023-04-24T01:45:01;5.43;;;4.40;;
7683;SDS011;3884;48.616;12.872;2023-04-24T01:47:35;5.17;;;4.23;;
7683;SDS011;3884;48.616;12.872;2023-04-24T01:50:05;5.07;;;4.50;;
7683;SDS011;3884;48.616;12.872;2023-04-24T01:52:33;5.17;;;4.67;;
7683;SDS011;3884;48.616;12.872;2023-04-24T01:55:04;6.37;;;4.83;;
7683;SDS011;3884;48.616;12.872;2023-04-24T01:57:33;5.10;;;4.57;;
7683;SDS011;3884;48.616;12.872;2023-04-24T02:00:01;4.60;;;4.10;;
7683;SDS011;3884;48.616;12.872;2023-04-24T02:02:39;5.13;;;4.33;;
7683;SDS011;3884;48.616;12.872;2023-04-24T02:05:08;5.07;;;4.53;;
7683;SDS011;3884;48.616;12.872;2023-04-24T02:07:36;5.10;;;4.33;;
7683;SDS011;3884;48.616;12.872;2023-04-24T02:10:05;4.60;;;4.17;;
7683;SDS011;3884;48.616;12.872;2023-04-24T02:12:33;5.90;;;4.50;;
7683;SDS011;3884;48.616;12.872;2023-04-24T02:15:00;4.47;;;4.07;;
7683;SDS011;3884;48.616;12.872;2023-04-24T02:17:28;4.50;;;4.10;;
7683;SDS011;3884;48.616;12.872;2023-04-24T02:19:56;4.87;;;3.77;;
7683;SDS011;3884;48.616;12.872;2023-04-24T02:22:23;4.63;;;3.63;;
7683;SDS011;3884;48.616;12.872;2023-04-24T02:24:53;5.27;;;4.00;;
7683;SDS011;3884;48.616;12.872;2023-04-24T02:27:23;4.20;;;3.80;;
7683;SDS011;3884;48.616;12.872;2023-04-24T02:29:50;5.80;;;3.90;;
7683;SDS011;3884;48.616;12.872;2023-04-24T02:32:17;4.53;;;3.77;;
7683;SDS011;3884;48.616;12.872;2023-04-24T02:34:48;4.27;;;3.77;;
7683;SDS011;3884;48.616;12.872;2023-04-24T02:37:15;5.93;;;3.80;;
7683;SDS011;3884;48.616;12.872;2023-04-24T02:39:43;5.90;;;3.60;;
7683;SDS011;3884;48.616;12.872;2023-04-24T02:42:11;4.77;;;3.40;;
7683;SDS011;3884;48.616;12.872;2023-04-24T02:44:39;5.73;;;3.53;;
7683;SDS011;3884;48.616;12.872;2023-04-24T02:47:10;3.97;;;3.33;;
7683;SDS011;3884;48.616;12.872;2023-04-24T02:49:37;4.80;;;3.50;;
7683;SDS011;3884;48.616;12.872;2023-04-24T02:52:04;6.27;;;3.53;;
7683;SDS011;3884;48.616;12.872;2023-04-24T02:54:33;3.50;;;3.20;;
7683;SDS011;3884;48.616;12.872;2023-04-24T02:57:01;4.07;;;3.20;;
7683;SDS011;3884;48.616;12.872;2023-04-24T02:59:32;4.20;;;3.40;;
7683;SDS011;3884;48.616;12.872;2023-04-24T03:02:04;3.57;;;3.27;;
7683;SDS011;3884;48.616;12.872;2023-04-24T03:04:32;3.67;;;2.73;;
7683;SDS011;3884;48.616;12.872;2023-04-24T03:06:59;3.27;;;2.97;;
7683;SDS011;3884;48.616;12.872;2023-04-24T03:09:27;3.67;;;3.03;;
7683;SDS011;3884;48.616;12.872;2023-04-24T03:11:54;3.40;;;3.00;;
7683;SDS011;3884;48.616;12.872;2023-04-24T03:14:23;3.50;;;2.90;;
7683;SDS011;3884;48.616;12.872;2023-04-24T03:16:54;3.03;;;2.73;;
7683;SDS011;3884;48.616;12.872;2023-04-24T03:19:23;4.47;;;2.80;;
7683;SDS011;3884;48.616;12.872;2023-04-24T03:21:58;3.47;;;3.00;;
7683;SDS011;3884;48.616;12.872;2023-04-24T03:24:25;3.30;;;2.93;;
7683;SDS011;3884;48.616;12.872;2023-04-24T03:26:54;4.37;;;3.33;;
7683;SDS011;3884;48.616;12.872;2023-04-24T03:29:40;3.53;;;3.00;;
7683;SDS011;3884;48.616;12.872;2023-04-24T03:32:07;3.57;;;2.80;;
7683;SDS011;3884;48.616;12.872;2023-04-24T03:34:38;3.57;;;3.03;;
7683;SDS011;3884;48.616;12.872;2023-04-24T03:37:08;3.50;;;2.93;;
7683;SDS011;3884;48.616;12.872;2023-04-24T03:39:43;3.20;;;2.87;;
7683;SDS011;3884;48.616;12.872;2023-04-24T03:42:12;4.57;;;3.10;;
7683;SDS011;3884;48.616;12.872;2023-04-24T03:44:51;3.23;;;2.87;;
7683;SDS011;3884;48.616;12.872;2023-04-24T03:47:26;4.43;;;3.50;;
7683;SDS011;3884;48.616;12.872;2023-04-24T03:49:59;4.10;;;2.60;;
7683;SDS011;3884;48.616;12.872;2023-04-24T03:52:30;3.13;;;2.83;;
7683;SDS011;3884;48.616;12.872;2023-04-24T03:55:00;3.07;;;2.77;;
7683;SDS011;3884;48.616;12.872;2023-04-24T03:57:32;4.30;;;2.83;;
7683;SDS011;3884;48.616;12.872;2023-04-24T04:00:09;3.33;;;2.97;;
7683;SDS011;3884;48.616;12.872;2023-04-24T04:02:49;3.40;;;3.10;;
7683;SDS011;3884;48.616;12.872;2023-04-24T04:05:18;2.90;;;2.70;;
7683;SDS011;3884;48.616;12.872;2023-04-24T04:07:45;3.27;;;2.57;;
7683;SDS011;3884;48.616;12.872;2023-04-24T04:10:12;4.60;;;2.87;;
7683;SDS011;3884;48.616;12.872;2023-04-24T04:12:39;2.90;;;2.70;;
7683;SDS011;3884;48.616;12.872;2023-04-24T04:15:07;3.00;;;2.70;;
7683;SDS011;3884;48.616;12.872;2023-04-24T04:17:35;3.03;;;2.73;;
7683;SDS011;3884;48.616;12.872;2023-04-24T04:20:05;3.23;;;2.70;;
7683;SDS011;3884;48.616;12.872;2023-04-24T04:22:37;2.70;;;2.50;;
7683;SDS011;3884;48.616;12.872;2023-04-24T04:25:07;3.20;;;2.90;;
7683;SDS011;3884;48.616;12.872;2023-04-24T04:27:35;2.50;;;2.30;;
7683;SDS011;3884;48.616;12.872;2023-04-24T04:30:08;3.60;;;2.67;;
7683;SDS011;3884;48.616;12.872;2023-04-24T04:32:50;2.70;;;2.50;;
7683;SDS011;3884;48.616;12.872;2023-04-24T04:35:17;4.73;;;2.60;;
7683;SDS011;3884;48.616;12.872;2023-04-24T04:37:45;3.13;;;2.70;;
7683;SDS011;3884;48.616;12.872;2023-04-24T04:40:29;3.10;;;2.80;;
7683;SDS011;3884;48.616;12.872;2023-04-24T04:43:00;3.20;;;2.87;;
7683;SDS011;3884;48.616;12.872;2023-04-24T04:45:32;2.60;;;2.40;;
7683;SDS011;3884;48.616;12.872;2023-04-24T04:48:19;3.47;;;2.40;;
7683;SDS011;3884;48.616;12.872;2023-04-24T04:50:46;2.57;;;2.30;;
7683;SDS011;3884;48.616;12.872;2023-04-24T04:53:15;2.97;;;2.53;;
7683;SDS011;3884;48.616;12.872;2023-04-24T04:55:42;4.43;;;2.50;;
7683;SDS011;3884;48.616;12.872;2023-04-24T04:58:17;3.70;;;2.30;;
7683;SDS011;3884;48.616;12.872;2023-04-24T05:00:45;2.63;;;2.40;;
7683;SDS011;3884;48.616;12.872;2023-04-24T05:03:21;2.97;;;2.30;;
7683;SDS011;3884;48.616;12.872;2023-04-24T05:05:59;3.93;;;2.60;;
7683;SDS011;3884;48.616;12.872;2023-04-24T05:08:28;3.43;;;2.37;;
7683;SDS011;3884;48.616;12.872;2023-04-24T05:10:55;3.17;;;2.20;;
7683;SDS011;3884;48.616;12.872;2023-04-24T05:13:24;2.63;;;2.10;;
7683;SDS011;3884;48.616;12.872;2023-04-24T05:15:50;2.60;;;2.30;;
7683;SDS011;3884;48.616;12.872;2023-04-24T05:18:17;2.20;;;2.00;;
7683;SDS011;3884;48.616;12.872;2023-04-24T05:20:45;3.90;;;2.40;;
7683;SDS011;3884;48.616;12.872;2023-04-24T05:23:12;2.40;;;2.20;;
7683;SDS011;3884;48.616;12.872;2023-04-24T05:25:44;2.63;;;2.23;;
7683;SDS011;3884;48.616;12.872;2023-04-24T05:28:13;2.20;;;2.00;;
7683;SDS011;3884;48.616;12.872;2023-04-24T05:30:43;2.47;;;2.10;;
7683;SDS011;3884;48.616;12.872;2023-04-24T05:33:11;3.17;;;2.30;;
7683;SDS011;3884;48.616;12.872;2023-04-24T05:35:39;3.00;;;2.13;;
7683;SDS011;3884;48.616;12.872;2023-04-24T05:38:11;2.10;;;1.90;;
7683;SDS011;3884;48.616;12.872;2023-04-24T05:40:40;2.13;;;1.90;;
7683;SDS011;3884;48.616;12.872;2023-04-24T05:43:08;5.50;;;1.87;;
7683;SDS011;3884;48.616;12.872;2023-04-24T05:45:35;2.20;;;1.77;;
7683;SDS011;3884;48.616;12.872;2023-04-24T05:48:02;2.00;;;1.80;;
7683;SDS011;3884;48.616;12.872;2023-04-24T05:50:29;3.27;;;1.93;;
7683;SDS011;3884;48.616;12.872;2023-04-24T05:52:57;2.30;;;1.80;;
7683;SDS011;3884;48.616;12.872;2023-04-24T05:55:30;2.20;;;1.90;;
7683;SDS011;3884;48.616;12.872;2023-04-24T05:57:57;2.37;;;1.97;;
7683;SDS011;3884;48.616;12.872;2023-04-24T06:00:30;2.60;;;1.80;;
7683;SDS011;3884;48.616;12.872;2023-04-24T06:03:07;2.17;;;1.70;;
7683;SDS011;3884;48.616;12.872;2023-04-24T06:05:35;1.70;;;1.60;;
7683;SDS011;3884;48.616;12.872;2023-04-24T06:08:05;1.80;;;1.70;;
7683;SDS011;3884;48.616;12.872;2023-04-24T06:10:37;2.20;;;2.00;;
7683;SDS011;3884;48.616;12.872;2023-04-24T06:13:06;1.83;;;1.70;;
7683;SDS011;3884;48.616;12.872;2023-04-24T06:15:37;2.03;;;1.70;;
7683;SDS011;3884;48.616;12.872;2023-04-24T06:18:08;2.70;;;2.13;;
7683;SDS011;3884;48.616;12.872;2023-04-24T06:20:37;1.77;;;1.67;;
7683;SDS011;3884;48.616;12.872;2023-04-24T06:23:07;1.70;;;1.60;;
7683;SDS011;3884;48.616;12.872;2023-04-24T06:25:36;2.47;;;1.77;;
7683;SDS011;3884;48.616;12.872;2023-04-24T06:28:04;1.90;;;1.80;;
7683;SDS011;3884;48.616;12.872;2023-04-24T06:30:34;2.57;;;1.57;;
7683;SDS011;3884;48.616;12.872;2023-04-24T06:33:08;2.53;;;1.80;;
7683;SDS011;3884;48.616;12.872;2023-04-24T06:35:41;1.60;;;1.50;;
7683;SDS011;3884;48.616;12.872;2023-04-24T06:38:09;2.17;;;1.70;;
7683;SDS011;3884;48.616;12.872;2023-04-24T06:40:36;2.50;;;2.03;;
7683;SDS011;3884;48.616;12.872;2023-04-24T06:43:04;2.03;;;1.60;;
7683;SDS011;3884;48.616;12.872;2023-04-24T06:45:31;2.13;;;1.70;;
7683;SDS011;3884;48.616;12.872;2023-04-24T06:47:59;1.60;;;1.50;;
7683;SDS011;3884;48.616;12.872;2023-04-24T06:50:29;3.20;;;1.60;;
7683;SDS011;3884;48.616;12.872;2023-04-24T06:52:56;3.50;;;1.80;;
7683;SDS011;3884;48.616;12.872;2023-04-24T06:55:23;4.60;;;1.80;;
7683;SDS011;3884;48.616;12.872;2023-04-24T06:57:50;2.30;;;1.50;;
7683;SDS011;3884;48.616;12.872;2023-04-24T07:00:17;1.80;;;1.43;;
7683;SDS011;3884;48.616;12.872;2023-04-24T07:02:44;3.10;;;1.50;;
7683;SDS011;3884;48.616;12.872;2023-04-24T07:05:12;2.30;;;1.60;;
7683;SDS011;3884;48.616;12.872;2023-04-24T07:07:40;2.00;;;1.40;;
7683;SDS011;3884;48.616;12.872;2023-04-24T07:10:08;1.70;;;1.53;;
7683;SDS011;3884;48.616;12.872;2023-04-24T07:12:35;2.37;;;1.67;;
7683;SDS011;3884;48.616;12.872;2023-04-24T07:15:02;2.27;;;1.47;;
7683;SDS011;3884;48.616;12.872;2023-04-24T07:17:30;1.73;;;1.60;;
7683;SDS011;3884;48.616;12.872;2023-04-24T07:19:57;2.53;;;1.70;;
7683;SDS011;3884;48.616;12.872;2023-04-24T07:22:25;2.53;;;1.83;;
7683;SDS011;3884;48.616;12.872;2023-04-24T07:24:52;1.43;;;1.33;;
7683;SDS011;3884;48.616;12.872;2023-04-24T07:27:19;1.83;;;1.60;;
7683;SDS011;3884;48.616;12.872;2023-04-24T07:29:48;1.97;;;1.60;;
7683;SDS011;3884;48.616;12.872;2023-04-24T07:32:15;1.90;;;1.70;;
7683;SDS011;3884;48.616;12.872;2023-04-24T07:34:42;1.93;;;1.50;;
7683;SDS011;3884;48.616;12.872;2023-04-24T07:37:09;3.87;;;1.70;;
7683;SDS011;3884;48.616;12.872;2023-04-24T07:39:37;2.20;;;1.60;;
7683;SDS011;3884;48.616;12.872;2023-04-24T07:42:08;1.80;;;1.50;;
7683;SDS011;3884;48.616;12.872;2023-04-24T07:44:44;1.73;;;1.63;;
7683;SDS011;3884;48.616;12.872;2023-04-24T07:47:12;1.77;;;1.67;;
7683;SDS011;3884;48.616;12.872;2023-04-24T07:49:48;2.17;;;1.43;;
7683;SDS011;3884;48.616;12.872;2023-04-24T07:52:16;2.80;;;1.73;;
7683;SDS011;3884;48.616;12.872;2023-04-24T07:54:45;1.90;;;1.70;;
7683;SDS011;3884;48.616;12.872;2023-04-24T07:57:16;2.47;;;1.60;;
7683;SDS011;3884;48.616;12.872;2023-04-24T07:59:44;3.40;;;1.73;;
7683;SDS011;3884;48.616;12.872;2023-04-24T08:02:12;2.50;;;1.60;;
7683;SDS011;3884;48.616;12.872;2023-04-24T08:04:40;2.43;;;1.57;;
7683;SDS011;3884;48.616;12.872;2023-04-24T08:07:07;2.10;;;1.60;;
7683;SDS011;3884;48.616;12.872;2023-04-24T08:09:35;2.97;;;1.90;;
7683;SDS011;3884;48.616;12.872;2023-04-24T08:12:06;1.80;;;1.70;;
7683;SDS011;3884;48.616;12.872;2023-04-24T08:14:33;1.87;;;1.67;;
7683;SDS011;3884;48.616;12.872;2023-04-24T08:17:00;1.80;;;1.70;;
7683;SDS011;3884;48.616;12.872;2023-04-24T08:19:30;3.93;;;1.60;;
7683;SDS011;3884;48.616;12.872;2023-04-24T08:21:58;1.80;;;1.70;;
7683;SDS011;3884;48.616;12.872;2023-04-24T08:24:25;1.63;;;1.53;;
7683;SDS011;3884;48.616;12.872;2023-04-24T08:26:52;2.20;;;1.73;;
7683;SDS011;3884;48.616;12.872;2023-04-24T08:29:32;4.03;;;1.80;;
7683;SDS011;3884;48.616;12.872;2023-04-24T08:32:16;1.60;;;1.50;;
7683;SDS011;3884;48.616;12.872;2023-04-24T08:34:46;2.70;;;2.30;;
7683;SDS011;3884;48.616;12.872;2023-04-24T08:37:14;2.27;;;1.80;;
7683;SDS011;3884;48.616;12.872;2023-04-24T08:39:41;1.90;;;1.53;;
7683;SDS011;3884;48.616;12.872;2023-04-24T08:42:08;3.10;;;1.40;;
7683;SDS011;3884;48.616;12.872;2023-04-24T08:44:39;1.60;;;1.50;;
7683;SDS011;3884;48.616;12.872;2023-04-24T08:47:09;2.90;;;1.80;;
7683;SDS011;3884;48.616;12.872;2023-04-24T08:49:39;4.17;;;1.70;;
7683;SDS011;3884;48.616;12.872;2023-04-24T08:52:06;3.17;;;1.80;;
7683;SDS011;3884;48.616;12.872;2023-04-24T08:54:40;2.43;;;1.63;;
7683;SDS011;3884;48.616;12.872;2023-04-24T08:57:11;1.87;;;1.70;;
7683;SDS011;3884;48.616;12.872;2023-04-24T08:59:40;2.70;;;1.50;;
7683;SDS011;3884;48.616;12.872;2023-04-24T09:02:09;1.83;;;1.53;;
7683;SDS011;3884;48.616;12.872;2023-04-24T09:04:37;2.30;;;1.53;;
7683;SDS011;3884;48.616;12.872;2023-04-24T09:07:05;1.50;;;1.40;;
7683;SDS011;3884;48.616;12.872;2023-04-24T09:09:34;3.20;;;1.30;;
7683;SDS011;3884;48.616;12.872;2023-04-24T09:12:05;2.90;;;1.30;;
7683;SDS011;3884;48.616;12.872;2023-04-24T09:14:34;2.93;;;2.30;;
7683;SDS011;3884;48.616;12.872;2023-04-24T09:17:06;3.90;;;1.97;;
7683;SDS011;3884;48.616;12.872;2023-04-24T09:19:36;2.13;;;1.50;;
7683;SDS011;3884;48.616;12.872;2023-04-24T09:22:12;2.53;;;1.40;;
7683;SDS011;3884;48.616;12.872;2023-04-24T09:25:21;1.90;;;1.67;;
7683;SDS011;3884;48.616;12.872;2023-04-24T09:27:53;2.40;;;1.90;;
7683;SDS011;3884;48.616;12.872;2023-04-24T09:30:26;1.73;;;1.40;;
7683;SDS011;3884;48.616;12.872;2023-04-24T09:35:48;4.03;;;3.63;;
7683;SDS011;3884;48.616;12.872;2023-04-24T09:38:16;3.63;;;2.70;;
7683;SDS011;3884;48.616;12.872;2023-04-24T09:40:44;8.70;;;7.90;;
7683;SDS011;3884;48.616;12.872;2023-04-24T09:43:11;8.40;;;7.43;;
7683;SDS011;3884;48.616;12.872;2023-04-24T09:45:39;19.63;;;15.57;;
7683;SDS011;3884;48.616;12.872;2023-04-24T09:48:07;3.20;;;2.60;;
7683;SDS011;3884;48.616;12.872;2023-04-24T09:50:37;1.87;;;1.60;;
7683;SDS011;3884;48.616;12.872;2023-04-24T09:53:05;9.00;;;7.40;;
7683;SDS011;3884;48.616;12.872;2023-04-24T09:55:35;13.27;;;9.87;;
7683;SDS011;3884;48.616;12.872;2023-04-24T09:58:07;34.03;;;23.93;;
7683;SDS011;3884;48.616;12.872;2023-04-24T10:00:34;18.23;;;12.60;;
7683;SDS011;3884;48.616;12.872;2023-04-24T10:03:07;15.23;;;10.73;;
7683;SDS011;3884;48.616;12.872;2023-04-24T10:05:34;25.80;;;17.37;;
7683;SDS011;3884;48.616;12.872;2023-04-24T10:08:06;12.93;;;10.03;;
7683;SDS011;3884;48.616;12.872;2023-04-24T10:10:34;11.83;;;10.67;;
7683;SDS011;3884;48.616;12.872;2023-04-24T10:13:05;11.53;;;8.37;;
7683;SDS011;3884;48.616;12.872;2023-04-24T10:15:35;23.47;;;16.83;;
7683;SDS011;3884;48.616;12.872;2023-04-24T10:18:03;7.33;;;6.63;;
7683;SDS011;3884;48.616;12.872;2023-04-24T10:20:32;6.50;;;5.60;;
7683;SDS011;3884;48.616;12.872;2023-04-24T10:23:15;6.60;;;5.27;;
7683;SDS011;3884;48.616;12.872;2023-04-24T10:25:44;3.70;;;3.20;;
7683;SDS011;3884;48.616;12.872;2023-04-24T10:28:20;3.10;;;2.40;;
7683;SDS011;3884;48.616;12.872;2023-04-24T10:30:48;2.63;;;2.33;;
7683;SDS011;3884;48.616;12.872;2023-04-24T10:33:19;3.60;;;2.67;;
7683;SDS011;3884;48.616;12.872;2023-04-24T10:35:50;3.17;;;2.20;;
7683;SDS011;3884;48.616;12.872;2023-04-24T10:38:21;2.87;;;1.83;;
7683;SDS011;3884;48.616;12.872;2023-04-24T10:40:50;1.80;;;1.70;;
7683;SDS011;3884;48.616;12.872;2023-04-24T10:43:17;2.07;;;1.80;;
7683;SDS011;3884;48.616;12.872;2023-04-24T10:46:21;2.93;;;1.83;;
7683;SDS011;3884;48.616;12.872;2023-04-24T10:48:52;2.27;;;1.83;;
7683;SDS011;3884;48.616;12.872;2023-04-24T10:51:21;1.97;;;1.70;;
7683;SDS011;3884;48.616;12.872;2023-04-24T10:53:51;1.77;;;1.60;;
7683;SDS011;3884;48.616;12.872;2023-04-24T10:56:18;1.70;;;1.60;;
7683;SDS011;3884;48.616;12.872;2023-04-24T10:58:49;1.70;;;1.53;;
7683;SDS011;3884;48.616;12.872;2023-04-24T11:01:23;3.87;;;2.97;;
7683;SDS011;3884;48.616;12.872;2023-04-24T11:03:50;1.67;;;1.57;;
7683;SDS011;3884;48.616;12.872;2023-04-24T11:06:28;1.80;;;1.70;;
7683;SDS011;3884;48.616;12.872;2023-04-24T11:09:01;2.00;;;1.43;;
7683;SDS011;3884;48.616;12.872;2023-04-24T11:11:30;2.13;;;1.80;;
7683;SDS011;3884;48.616;12.872;2023-04-24T11:14:01;1.70;;;1.60;;
7683;SDS011;3884;48.616;12.872;2023-04-24T11:16:34;1.93;;;1.57;;
7683;SDS011;3884;48.616;12.872;2023-04-24T11:19:06;2.47;;;2.00;;
7683;SDS011;3884;48.616;12.872;2023-04-24T11:21:54;3.83;;;1.80;;
7683;SDS011;3884;48.616;12.872;2023-04-24T11:28:02;1.83;;;1.70;;
7683;SDS011;3884;48.616;12.872;2023-04-24T11:30:36;2.40;;;2.20;;
7683;SDS011;3884;48.616;12.872;2023-04-24T11:36:00;3.13;;;2.13;;
7683;SDS011;3884;48.616;12.872;2023-04-24T11:38:28;2.03;;;1.80;;
7683;SDS011;3884;48.616;12.872;2023-04-24T11:40:56;2.37;;;2.17;;
7683;SDS011;3884;48.616;12.872;2023-04-24T11:43:26;3.87;;;2.10;;
7683;SDS011;3884;48.616;12.872;2023-04-24T11:46:13;2.37;;;2.00;;
7683;SDS011;3884;48.616;12.872;2023-04-24T11:49:14;2.33;;;2.13;;
7683;SDS011;3884;48.616;12.872;2023-04-24T11:51:50;2.60;;;2.17;;
7683;SDS011;3884;48.616;12.872;2023-04-24T11:54:21;2.00;;;1.80;;
7683;SDS011;3884;48.616;12.872;2023-04-24T11:56:48;3.00;;;2.20;;
7683;SDS011;3884;48.616;12.872;2023-04-24T11:59:17;2.23;;;1.80;;
7683;SDS011;3884;48.616;12.872;2023-04-24T12:01:44;2.07;;;1.97;;
7683;SDS011;3884;48.616;12.872;2023-04-24T12:04:37;2.67;;;2.13;;
7683;SDS011;3884;48.616;12.872;2023-04-24T12:07:23;3.10;;;2.13;;
7683;SDS011;3884;48.616;12.872;2023-04-24T12:12:49;1.97;;;1.80;;
7683;SDS011;3884;48.616;12.872;2023-04-24T12:15:19;1.90;;;1.70;;
7683;SDS011;3884;48.616;12.872;2023-04-24T12:17:46;2.10;;;1.70;;
7683;SDS011;3884;48.616;12.872;2023-04-24T12:20:14;2.30;;;1.80;;
7683;SDS011;3884;48.616;12.872;2023-04-24T12:22:44;2.13;;;1.93;;
7683;SDS011;3884;48.616;12.872;2023-04-24T12:25:12;1.90;;;1.80;;
7683;SDS011;3884;48.616;12.872;2023-04-24T12:27:40;2.00;;;1.80;;
7683;SDS011;3884;48.616;12.872;2023-04-24T12:30:10;2.23;;;1.90;;
7683;SDS011;3884;48.616;12.872;2023-04-24T12:32:43;2.60;;;2.17;;
7683;SDS011;3884;48.616;12.872;2023-04-24T12:35:12;2.87;;;2.03;;
7683;SDS011;3884;48.616;12.872;2023-04-24T12:37:41;2.73;;;1.93;;
7683;SDS011;3884;48.616;12.872;2023-04-24T12:40:10;2.60;;;2.30;;
7683;SDS011;3884;48.616;12.872;2023-04-24T12:42:41;1.97;;;1.80;;
7683;SDS011;3884;48.616;12.872;2023-04-24T12:45:10;2.30;;;1.80;;
7683;SDS011;3884;48.616;12.872;2023-04-24T12:47:41;1.77;;;1.67;;
7683;SDS011;3884;48.616;12.872;2023-04-24T12:50:10;2.13;;;1.93;;
7683;SDS011;3884;48.616;12.872;2023-04-24T12:52:38;2.30;;;1.63;;
7683;SDS011;3884;48.616;12.872;2023-04-24T12:55:09;8.07;;;7.10;;
7683;SDS011;3884;48.616;12.872;2023-04-24T12:57:37;1.93;;;1.80;;
7683;SDS011;3884;48.616;12.872;2023-04-24T13:00:06;2.67;;;1.80;;
7683;SDS011;3884;48.616;12.872;2023-04-24T13:02:35;1.50;;;1.40;;
7683;SDS011;3884;48.616;12.872;2023-04-24T13:05:03;1.80;;;1.50;;
7683;SDS011;3884;48.616;12.872;2023-04-24T13:07:33;2.37;;;1.93;;
7683;SDS011;3884;48.616;12.872;2023-04-24T13:10:01;1.67;;;1.50;;
7683;SDS011;3884;48.616;12.872;2023-04-24T13:12:29;2.17;;;1.53;;
7683;SDS011;3884;48.616;12.872;2023-04-24T13:14:57;1.70;;;1.60;;
7683;SDS011;3884;48.616;12.872;2023-04-24T13:17:39;1.67;;;1.57;;
7683;SDS011;3884;48.616;12.872;2023-04-24T13:20:07;2.70;;;1.87;;
7683;SDS011;3884;48.616;12.872;2023-04-24T13:22:42;1.73;;;1.63;;
7683;SDS011;3884;48.616;12.872;2023-04-24T13:25:09;1.70;;;1.60;;
7683;SDS011;3884;48.616;12.872;2023-04-24T13:27:37;1.90;;;1.70;;
7683;SDS011;3884;48.616;12.872;2023-04-24T13:30:06;1.60;;;1.50;;
7683;SDS011;3884;48.616;12.872;2023-04-24T13:32:34;1.70;;;1.60;;
7683;SDS011;3884;48.616;12.872;2023-04-24T13:35:01;2.33;;;1.70;;
7683;SDS011;3884;48.616;12.872;2023-04-24T13:37:29;1.83;;;1.53;;
7683;SDS011;3884;48.616;12.872;2023-04-24T13:39:58;2.60;;;1.73;;
7683;SDS011;3884;48.616;12.872;2023-04-24T13:42:25;2.00;;;1.90;;
7683;SDS011;3884;48.616;12.872;2023-04-24T13:44:53;1.60;;;1.50;;
7683;SDS011;3884;48.616;12.872;2023-04-24T13:47:20;3.33;;;1.93;;
7683;SDS011;3884;48.616;12.872;2023-04-24T13:49:47;1.73;;;1.63;;
7683;SDS011;3884;48.616;12.872;2023-04-24T13:52:15;2.07;;;1.80;;
7683;SDS011;3884;48.616;12.872;2023-04-24T13:54:42;1.90;;;1.80;;
7683;SDS011;3884;48.616;12.872;2023-04-24T13:57:13;2.00;;;1.90;;
7683;SDS011;3884;48.616;12.872;2023-04-24T13:59:42;2.17;;;1.90;;
7683;SDS011;3884;48.616;12.872;2023-04-24T14:02:10;1.77;;;1.60;;
7683;SDS011;3884;48.616;12.872;2023-04-24T14:04:37;2.37;;;1.90;;
7683;SDS011;3884;48.616;12.872;2023-04-24T14:07:04;3.33;;;1.80;;
7683;SDS011;3884;48.616;12.872;2023-04-24T14:09:33;2.57;;;2.37;;
7683;SDS011;3884;48.616;12.872;2023-04-24T14:12:00;3.10;;;2.80;;
7683;SDS011;3884;48.616;12.872;2023-04-24T14:14:30;3.27;;;2.30;;
7683;SDS011;3884;48.616;12.872;2023-04-24T14:16:58;5.03;;;2.40;;
7683;SDS011;3884;48.616;12.872;2023-04-24T14:19:25;3.77;;;2.80;;
7683;SDS011;3884;48.616;12.872;2023-04-24T14:21:52;3.50;;;2.47;;
7683;SDS011;3884;48.616;12.872;2023-04-24T14:24:20;6.50;;;5.13;;
7683;SDS011;3884;48.616;12.872;2023-04-24T14:26:48;2.77;;;2.47;;
7683;SDS011;3884;48.616;12.872;2023-04-24T14:29:15;2.53;;;2.20;;
7683;SDS011;3884;48.616;12.872;2023-04-24T14:31:44;2.63;;;2.10;;
7683;SDS011;3884;48.616;12.872;2023-04-24T14:34:13;2.10;;;2.00;;
7683;SDS011;3884;48.616;12.872;2023-04-24T14:36:40;2.43;;;2.20;;
7683;SDS011;3884;48.616;12.872;2023-04-24T14:39:08;2.23;;;2.00;;
7683;SDS011;3884;48.616;12.872;2023-04-24T14:41:37;2.63;;;2.27;;
7683;SDS011;3884;48.616;12.872;2023-04-24T14:44:05;2.00;;;1.90;;
7683;SDS011;3884;48.616;12.872;2023-04-24T14:46:33;2.73;;;2.30;;
7683;SDS011;3884;48.616;12.872;2023-04-24T14:49:01;4.00;;;2.20;;
7683;SDS011;3884;48.616;12.872;2023-04-24T14:51:29;3.67;;;2.20;;
7683;SDS011;3884;48.616;12.872;2023-04-24T14:53:56;2.87;;;2.60;;
7683;SDS011;3884;48.616;12.872;2023-04-24T14:56:24;3.43;;;2.20;;
7683;SDS011;3884;48.616;12.872;2023-04-24T14:58:52;3.17;;;2.00;;
7683;SDS011;3884;48.616;12.872;2023-04-24T15:01:19;4.17;;;2.33;;
7683;SDS011;3884;48.616;12.872;2023-04-24T15:03:47;2.93;;;2.10;;
7683;SDS011;3884;48.616;12.872;2023-04-24T15:06:15;1.93;;;1.60;;
7683;SDS011;3884;48.616;12.872;2023-04-24T15:08:43;1.73;;;1.63;;
7683;SDS011;3884;48.616;12.872;2023-04-24T15:11:10;2.57;;;1.67;;
7683;SDS011;3884;48.616;12.872;2023-04-24T15:13:38;3.60;;;2.00;;
7683;SDS011;3884;48.616;12.872;2023-04-24T15:16:05;2.43;;;1.40;;
7683;SDS011;3884;48.616;12.872;2023-04-24T15:18:32;2.13;;;1.53;;
7683;SDS011;3884;48.616;12.872;2023-04-24T15:21:00;2.40;;;1.53;;
7683;SDS011;3884;48.616;12.872;2023-04-24T15:23:28;2.97;;;2.40;;
7683;SDS011;3884;48.616;12.872;2023-04-24T15:25:56;2.07;;;1.70;;
7683;SDS011;3884;48.616;12.872;2023-04-24T15:28:24;1.47;;;1.37;;